Robbinsville, North Carolina
Current Conditions -  °F | °C
As of 5:55 PM on Tuesday 27 Jan 2015 (Local Time) from KRHP Reporting Station
Overcast Overcast  
Wind Chill: 29°   Ceiling: 2700
Heat Index: 34°   Visibility: 10mi
Dew Point: 28°   Wind: 6mph
Humidity: 78%   Direction: 40°NE
Pressure: 30.01"   Gusts: NA
Location:  35.32°N, 83.81°W
Report Text: KRHP 272255Z AUTO 04005KT 10SM BKN027 OVC033 01/M02 A3001 RMK AO2 T00101025
Loading
Personal Weather Stations






























Interactive Weather Map New forecast layout! Learn more

10-Day Weather Forecast

Advertisements
Track Severe Weather on mobile